sensor_id;sensor_type;location;lat;lon;timestamp;P1;durP1;ratioP1;P2;durP2;ratioP2
52342;SDS011;38277;51.972;4.624;2023-01-01T00:15:51;38.4;;;15.7;;
52342;SDS011;38277;51.972;4.624;2023-01-01T00:27:55;30.0;;;17.5;;
52342;SDS011;38277;51.972;4.624;2023-01-01T00:39:59;29.6;;;12.1;;
52342;SDS011;38277;51.972;4.624;2023-01-01T00:46:02;25.3;;;10.8;;
52342;SDS011;38277;51.972;4.624;2023-01-01T00:58:05;20.1;;;8.8;;
52342;SDS011;38277;51.972;4.624;2023-01-01T01:04:07;23.3;;;7.9;;
52342;SDS011;38277;51.972;4.624;2023-01-01T01:13:10;17.1;;;6.4;;
52342;SDS011;38277;51.972;4.624;2023-01-01T01:28:16;17.4;;;5.2;;
52342;SDS011;38277;51.972;4.624;2023-01-01T01:31:17;20.9;;;6.1;;
52342;SDS011;38277;51.972;4.624;2023-01-01T01:34:41;17.7;;;6.4;;
52342;SDS011;38277;51.972;4.624;2023-01-01T01:53:08;13.7;;;4.2;;
52342;SDS011;38277;51.972;4.624;2023-01-01T02:11:03;19.8;;;8.7;;
52342;SDS011;38277;51.972;4.624;2023-01-01T02:20:27;12.8;;;4.3;;
52342;SDS011;38277;51.972;4.624;2023-01-01T02:41:20;18.4;;;4.2;;
52342;SDS011;38277;51.972;4.624;2023-01-01T02:47:17;11.4;;;3.7;;
52342;SDS011;38277;51.972;4.624;2023-01-01T02:55:39;11.4;;;3.1;;
52342;SDS011;38277;51.972;4.624;2023-01-01T03:04:30;11.0;;;3.5;;
52342;SDS011;38277;51.972;4.624;2023-01-01T03:10:31;11.1;;;3.5;;
52342;SDS011;38277;51.972;4.624;2023-01-01T03:22:29;12.8;;;3.7;;
52342;SDS011;38277;51.972;4.624;2023-01-01T03:28:35;10.8;;;2.7;;
52342;SDS011;38277;51.972;4.624;2023-01-01T03:52:43;11.9;;;2.7;;
52342;SDS011;38277;51.972;4.624;2023-01-01T03:55:37;12.4;;;2.4;;
52342;SDS011;38277;51.972;4.624;2023-01-01T04:04:37;9.7;;;2.6;;
52342;SDS011;38277;51.972;4.624;2023-01-01T04:16:41;11.2;;;4.1;;
52342;SDS011;38277;51.972;4.624;2023-01-01T04:22:43;14.3;;;3.0;;
52342;SDS011;38277;51.972;4.624;2023-01-01T04:40:56;11.8;;;2.8;;
52342;SDS011;38277;51.972;4.624;2023-01-01T04:49:53;10.5;;;2.4;;
52342;SDS011;38277;51.972;4.624;2023-01-01T04:58:56;11.4;;;2.9;;
52342;SDS011;38277;51.972;4.624;2023-01-01T05:11:00;12.9;;;3.3;;
52342;SDS011;38277;51.972;4.624;2023-01-01T05:17:02;7.4;;;2.0;;
52342;SDS011;38277;51.972;4.624;2023-01-01T05:29:06;9.1;;;2.2;;
52342;SDS011;38277;51.972;4.624;2023-01-01T05:38:10;7.2;;;2.0;;
52342;SDS011;38277;51.972;4.624;2023-01-01T05:53:15;8.2;;;2.7;;
52342;SDS011;38277;51.972;4.624;2023-01-01T06:05:19;12.2;;;3.5;;
52342;SDS011;38277;51.972;4.624;2023-01-01T06:11:21;7.6;;;1.9;;
52342;SDS011;38277;51.972;4.624;2023-01-01T06:20:24;9.2;;;2.6;;
52342;SDS011;38277;51.972;4.624;2023-01-01T06:35:29;7.4;;;2.1;;
52342;SDS011;38277;51.972;4.624;2023-01-01T06:41:31;7.4;;;2.0;;
52342;SDS011;38277;51.972;4.624;2023-01-01T06:47:33;10.7;;;2.3;;
52342;SDS011;38277;51.972;4.624;2023-01-01T06:59:37;12.0;;;3.3;;
52342;SDS011;38277;51.972;4.624;2023-01-01T07:05:40;13.2;;;2.7;;
52342;SDS011;38277;51.972;4.624;2023-01-01T07:20:47;10.2;;;2.7;;
52342;SDS011;38277;51.972;4.624;2023-01-01T07:23:46;13.7;;;3.0;;
52342;SDS011;38277;51.972;4.624;2023-01-01T07:47:55;9.2;;;2.4;;
52342;SDS011;38277;51.972;4.624;2023-01-01T07:53:57;10.7;;;2.6;;
52342;SDS011;38277;51.972;4.624;2023-01-01T07:59:58;11.9;;;2.3;;
52342;SDS011;38277;51.972;4.624;2023-01-01T08:13:57;13.7;;;3.8;;
52342;SDS011;38277;51.972;4.624;2023-01-01T08:20:00;12.0;;;2.3;;
52342;SDS011;38277;51.972;4.624;2023-01-01T08:29:03;15.9;;;2.9;;
52342;SDS011;38277;51.972;4.624;2023-01-01T08:38:07;5.7;;;1.8;;
52342;SDS011;38277;51.972;4.624;2023-01-01T08:47:14;10.0;;;2.4;;
52342;SDS011;38277;51.972;4.624;2023-01-01T09:02:15;9.2;;;2.4;;
52342;SDS011;38277;51.972;4.624;2023-01-01T09:08:16;13.7;;;3.2;;
52342;SDS011;38277;51.972;4.624;2023-01-01T09:14:19;14.7;;;3.2;;
52342;SDS011;38277;51.972;4.624;2023-01-01T09:19:15;13.1;;;2.8;;
52342;SDS011;38277;51.972;4.624;2023-01-01T09:31:37;11.4;;;2.7;;
52342;SDS011;38277;51.972;4.624;2023-01-01T09:37:40;10.6;;;2.7;;
52342;SDS011;38277;51.972;4.624;2023-01-01T09:58:57;6.3;;;1.9;;
52342;SDS011;38277;51.972;4.624;2023-01-01T10:05:32;13.9;;;2.9;;
52342;SDS011;38277;51.972;4.624;2023-01-01T10:15:11;13.1;;;2.5;;
52342;SDS011;38277;51.972;4.624;2023-01-01T10:25:57;14.1;;;2.9;;
52342;SDS011;38277;51.972;4.624;2023-01-01T10:35:00;14.4;;;3.3;;
52342;SDS011;38277;51.972;4.624;2023-01-01T10:39:21;15.3;;;3.1;;
52342;SDS011;38277;51.972;4.624;2023-01-01T10:45:27;16.5;;;3.1;;
52342;SDS011;38277;51.972;4.624;2023-01-01T10:52:40;13.0;;;3.3;;
52342;SDS011;38277;51.972;4.624;2023-01-01T10:57:36;11.8;;;3.5;;
52342;SDS011;38277;51.972;4.624;2023-01-01T11:18:43;11.9;;;2.8;;
52342;SDS011;38277;51.972;4.624;2023-01-01T11:25:00;14.3;;;3.0;;
52342;SDS011;38277;51.972;4.624;2023-01-01T11:39:51;14.6;;;3.0;;
52342;SDS011;38277;51.972;4.624;2023-01-01T11:45:54;13.1;;;3.4;;
52342;SDS011;38277;51.972;4.624;2023-01-01T11:55:00;16.2;;;4.1;;
52342;SDS011;38277;51.972;4.624;2023-01-01T12:04:01;17.1;;;4.6;;
52342;SDS011;38277;51.972;4.624;2023-01-01T12:19:14;14.9;;;3.9;;
52342;SDS011;38277;51.972;4.624;2023-01-01T12:31:49;15.3;;;3.6;;
52342;SDS011;38277;51.972;4.624;2023-01-01T12:42:36;16.4;;;4.2;;
52342;SDS011;38277;51.972;4.624;2023-01-01T12:49:18;15.0;;;3.3;;
52342;SDS011;38277;51.972;4.624;2023-01-01T12:58:56;26.0;;;4.5;;
52342;SDS011;38277;51.972;4.624;2023-01-01T13:16:38;13.5;;;4.1;;
52342;SDS011;38277;51.972;4.624;2023-01-01T13:22:41;17.3;;;3.8;;
52342;SDS011;38277;51.972;4.624;2023-01-01T13:32:02;17.8;;;3.9;;
52342;SDS011;38277;51.972;4.624;2023-01-01T13:40:50;14.9;;;3.8;;
52342;SDS011;38277;51.972;4.624;2023-01-01T13:53:56;11.6;;;3.1;;
52342;SDS011;38277;51.972;4.624;2023-01-01T14:01:22;16.9;;;4.4;;
52342;SDS011;38277;51.972;4.624;2023-01-01T14:07:49;16.1;;;4.1;;
52342;SDS011;38277;51.972;4.624;2023-01-01T14:19:46;11.9;;;3.1;;
52342;SDS011;38277;51.972;4.624;2023-01-01T14:28:52;18.4;;;3.5;;
52342;SDS011;38277;51.972;4.624;2023-01-01T14:37:52;11.4;;;2.7;;
52342;SDS011;38277;51.972;4.624;2023-01-01T14:46:55;15.6;;;3.2;;
52342;SDS011;38277;51.972;4.624;2023-01-01T14:53:02;15.4;;;3.2;;
52342;SDS011;38277;51.972;4.624;2023-01-01T15:02:02;9.9;;;2.8;;
52342;SDS011;38277;51.972;4.624;2023-01-01T15:11:04;9.9;;;3.1;;
52342;SDS011;38277;51.972;4.624;2023-01-01T15:20:18;14.4;;;3.5;;
52342;SDS011;38277;51.972;4.624;2023-01-01T15:23:11;15.7;;;3.5;;
52342;SDS011;38277;51.972;4.624;2023-01-01T15:29:10;13.0;;;4.4;;
52342;SDS011;38277;51.972;4.624;2023-01-01T15:42:35;13.5;;;4.1;;
52342;SDS011;38277;51.972;4.624;2023-01-01T15:52:59;11.6;;;4.0;;
52342;SDS011;38277;51.972;4.624;2023-01-01T15:56:01;12.7;;;4.3;;
52342;SDS011;38277;51.972;4.624;2023-01-01T16:03:17;12.9;;;3.9;;
52342;SDS011;38277;51.972;4.624;2023-01-01T16:09:19;15.6;;;4.3;;
52342;SDS011;38277;51.972;4.624;2023-01-01T16:19:39;14.4;;;4.2;;
52342;SDS011;38277;51.972;4.624;2023-01-01T16:22:41;11.6;;;3.6;;
52342;SDS011;38277;51.972;4.624;2023-01-01T16:28:43;14.7;;;4.5;;
52342;SDS011;38277;51.972;4.624;2023-01-01T16:34:45;20.3;;;4.1;;
52342;SDS011;38277;51.972;4.624;2023-01-01T16:52:51;18.6;;;5.8;;
52342;SDS011;38277;51.972;4.624;2023-01-01T16:58:53;17.3;;;4.7;;
52342;SDS011;38277;51.972;4.624;2023-01-01T17:01:54;13.6;;;4.1;;
52342;SDS011;38277;51.972;4.624;2023-01-01T17:10:59;15.5;;;4.8;;
52342;SDS011;38277;51.972;4.624;2023-01-01T17:23:02;14.6;;;3.9;;
52342;SDS011;38277;51.972;4.624;2023-01-01T17:29:03;12.7;;;4.7;;
52342;SDS011;38277;51.972;4.624;2023-01-01T17:41:08;14.2;;;4.3;;
52342;SDS011;38277;51.972;4.624;2023-01-01T17:47:10;14.1;;;4.6;;
52342;SDS011;38277;51.972;4.624;2023-01-01T17:56:17;15.7;;;4.9;;
52342;SDS011;38277;51.972;4.624;2023-01-01T18:05:16;19.7;;;6.3;;
52342;SDS011;38277;51.972;4.624;2023-01-01T18:20:21;17.0;;;4.9;;
52342;SDS011;38277;51.972;4.624;2023-01-01T18:26:25;16.7;;;4.9;;
52342;SDS011;38277;51.972;4.624;2023-01-01T18:35:26;16.7;;;4.1;;
52342;SDS011;38277;51.972;4.624;2023-01-01T18:42:00;12.7;;;4.8;;
52342;SDS011;38277;51.972;4.624;2023-01-01T19:03:10;13.9;;;5.2;;
52342;SDS011;38277;51.972;4.624;2023-01-01T19:12:25;12.5;;;4.3;;
52342;SDS011;38277;51.972;4.624;2023-01-01T19:39:02;9.4;;;3.8;;
52342;SDS011;38277;51.972;4.624;2023-01-01T19:48:11;12.4;;;5.3;;
52342;SDS011;38277;51.972;4.624;2023-01-01T19:52:55;10.5;;;4.2;;
52342;SDS011;38277;51.972;4.624;2023-01-01T20:15:02;10.1;;;3.9;;
52342;SDS011;38277;51.972;4.624;2023-01-01T20:24:30;10.4;;;4.1;;
52342;SDS011;38277;51.972;4.624;2023-01-01T20:28:35;10.2;;;3.8;;
52342;SDS011;38277;51.972;4.624;2023-01-01T20:51:12;9.0;;;3.9;;
52342;SDS011;38277;51.972;4.624;2023-01-01T21:00:21;10.6;;;4.2;;
52342;SDS011;38277;51.972;4.624;2023-01-01T21:04:56;8.6;;;3.8;;
52342;SDS011;38277;51.972;4.624;2023-01-01T21:27:32;13.4;;;4.4;;
52342;SDS011;38277;51.972;4.624;2023-01-01T21:36:10;12.2;;;4.5;;
52342;SDS011;38277;51.972;4.624;2023-01-01T21:40:39;7.8;;;3.7;;
52342;SDS011;38277;51.972;4.624;2023-01-01T21:45:15;10.2;;;4.0;;
52342;SDS011;38277;51.972;4.624;2023-01-01T21:58:49;14.3;;;6.1;;
52342;SDS011;38277;51.972;4.624;2023-01-01T22:03:19;11.8;;;4.3;;
52342;SDS011;38277;51.972;4.624;2023-01-01T22:12:27;11.8;;;5.4;;
52342;SDS011;38277;51.972;4.624;2023-01-01T22:16:55;12.6;;;5.9;;
52342;SDS011;38277;51.972;4.624;2023-01-01T22:39:13;15.2;;;6.3;;
52342;SDS011;38277;51.972;4.624;2023-01-01T22:48:03;15.9;;;5.1;;
52342;SDS011;38277;51.972;4.624;2023-01-01T22:52:46;11.5;;;4.5;;
52342;SDS011;38277;51.972;4.624;2023-01-01T23:15:26;12.2;;;5.7;;
52342;SDS011;38277;51.972;4.624;2023-01-01T23:24:16;12.9;;;6.0;;
52342;SDS011;38277;51.972;4.624;2023-01-01T23:28:38;14.1;;;5.5;;
52342;SDS011;38277;51.972;4.624;2023-01-01T23:37:38;12.3;;;6.6;;
52342;SDS011;38277;51.972;4.624;2023-01-01T23:42:22;12.9;;;5.7;;
52342;SDS011;38277;51.972;4.624;2023-01-01T23:47:04;11.3;;;4.5;;
52342;SDS011;38277;51.972;4.624;2023-01-01T23:51:11;10.2;;;4.7;;
52342;SDS011;38277;51.972;4.624;2023-01-01T23:55:51;13.9;;;4.7;;
